< < Back
Terminal Aerodrome Forecast


Current Version              Previous Versions:   1  2  3  4  5  6  7  8  9  

Terminal Aerodrome Forecast

956
FTUS42 KTAE 311100
TAFVLD
TAF
KVLD 311120Z 3112/0112 00000KT P6SM SCT250
      TEMPO 3112/3113 4SM BR
     FM311800 15005KT P6SM SCT050 SCT250
     FM010100 00000KT P6SM BKN250
     FM011000 00000KT P6SM SCT100 BKN250=



Latest METAR

366
SAUS70 KWBC 311700 RRS
MTRVLD
METAR KVLD 311653Z 00000KT 10SM SCT065 33/16 A3001 RMK AO2 SLP167
T03330156


USA.gov is the U.S. government's official web portal to all federal, state and local government web resources and services.